Time;durP1;ratioP1;P1;durP2;ratioP2;P2;SDS_P1;SDS_P2;PMS_P1;PMS_P2;Temp;Humidity;BMP_temperature;BMP_pressure;BME280_temperature;BME280_humidity;BME280_pressure;Samples;Min_cycle;Max_cycle;Signal;HPM_P1;HPM_P2
2021/10/10 00:01:50;;;;;;;22.83;11.03;;;;;;;;;;4862962;29;20195;-89
2021/10/10 00:05:06;;;;;;;35.10;11.80;;;;;;;;;;4872586;29;20239;-91
2021/10/10 00:08:18;;;;;;;25.57;11.77;;;;;;;;;;4872792;29;20218;-89
2021/10/10 00:11:30;;;;;;;29.03;12.67;;;;;;;;;;4871799;29;20202;-91
2021/10/10 00:14:42;;;;;;;25.33;11.27;;;;;;;;;;4870993;29;20274;-90
2021/10/10 00:17:54;;;;;;;24.53;11.53;;;;;;;;;;4873046;29;20251;-91
2021/10/10 00:21:08;;;;;;;24.77;11.53;;;;;;;;;;4869686;29;20225;-91
2021/10/10 00:24:20;;;;;;;27.87;10.53;;;;;;;;;;4871441;29;20193;-91
2021/10/10 00:27:32;;;;;;;28.50;11.80;;;;;;;;;;4870274;29;20182;-90
2021/10/10 00:30:44;;;;;;;23.47;10.70;;;;;;;;;;4869368;29;20194;-91
2021/10/10 00:33:57;;;;;;;24.47;11.77;;;;;;;;;;4869847;29;20197;-91
2021/10/10 00:37:08;;;;;;;43.03;11.83;;;;;;;;;;4870515;29;20214;-92
2021/10/10 00:40:20;;;;;;;22.33;10.80;;;;;;;;;;4869597;29;20237;-92
2021/10/10 00:43:32;;;;;;;23.33;11.23;;;;;;;;;;4868751;29;20255;-90
2021/10/10 00:46:44;;;;;;;31.03;12.23;;;;;;;;;;4870153;29;20318;-90
2021/10/10 00:49:57;;;;;;;24.50;11.17;;;;;;;;;;4869192;29;20237;-91
2021/10/10 00:53:09;;;;;;;77.93;12.63;;;;;;;;;;4869325;29;20206;-91
2021/10/10 00:56:29;;;;;;;26.17;12.23;;;;;;;;;;4868883;29;20225;-90
2021/10/10 00:59:44;;;;;;;30.67;12.20;;;;;;;;;;4869209;29;20274;-90
2021/10/10 01:02:57;;;;;;;35.80;11.47;;;;;;;;;;4870341;29;20206;-89
2021/10/10 01:06:10;;;;;;;27.03;12.37;;;;;;;;;;4870381;29;20323;-90
2021/10/10 01:09:22;;;;;;;28.67;11.50;;;;;;;;;;4871873;29;20190;-89
2021/10/10 01:12:34;;;;;;;29.23;11.17;;;;;;;;;;4873552;29;20198;-91
2021/10/10 01:15:53;;;;;;;40.23;10.77;;;;;;;;;;4872987;29;20205;-91
2021/10/10 01:19:05;;;;;;;28.80;11.10;;;;;;;;;;4872922;29;20324;-90
2021/10/10 01:22:17;;;;;;;38.47;11.17;;;;;;;;;;4872748;29;20329;-90
2021/10/10 01:25:29;;;;;;;23.57;11.27;;;;;;;;;;4871757;29;20225;-92
2021/10/10 01:28:41;;;;;;;32.87;12.20;;;;;;;;;;4872119;29;20210;-90
2021/10/10 01:31:53;;;;;;;31.27;12.90;;;;;;;;;;4872234;29;20324;-89
2021/10/10 01:35:04;;;;;;;26.57;11.60;;;;;;;;;;4871174;29;20214;-89
2021/10/10 01:38:18;;;;;;;26.63;12.03;;;;;;;;;;4872347;29;20233;-90
2021/10/10 01:41:30;;;;;;;21.63;10.80;;;;;;;;;;4873347;29;20229;-90
2021/10/10 01:44:42;;;;;;;27.23;11.90;;;;;;;;;;4872038;29;20217;-90
2021/10/10 01:47:54;;;;;;;26.53;10.87;;;;;;;;;;4872074;29;20213;-90
2021/10/10 01:51:06;;;;;;;26.60;10.77;;;;;;;;;;4871249;29;20202;-90
2021/10/10 01:54:22;;;;;;;31.53;11.57;;;;;;;;;;4872474;29;20219;-90
2021/10/10 01:57:36;;;;;;;28.90;11.57;;;;;;;;;;4871361;29;20186;-91
2021/10/10 02:00:47;;;;;;;29.93;11.40;;;;;;;;;;4874386;29;20230;-90
2021/10/10 02:03:59;;;;;;;26.73;12.20;;;;;;;;;;4873569;29;20296;-91
2021/10/10 02:07:10;;;;;;;26.50;11.30;;;;;;;;;;4872750;29;20186;-90
2021/10/10 02:10:23;;;;;;;27.10;11.80;;;;;;;;;;4871257;29;20215;-91
2021/10/10 02:13:34;;;;;;;25.17;10.83;;;;;;;;;;4871064;29;20669;-91
2021/10/10 02:16:46;;;;;;;25.17;11.53;;;;;;;;;;4870447;29;20233;-91
2021/10/10 02:19:57;;;;;;;27.77;11.83;;;;;;;;;;4870338;29;20230;-90
2021/10/10 02:23:09;;;;;;;24.90;11.90;;;;;;;;;;4870923;29;20582;-92
2021/10/10 02:26:23;;;;;;;22.33;11.20;;;;;;;;;;4869659;29;20221;-91
2021/10/10 02:29:34;;;;;;;23.63;11.33;;;;;;;;;;4870367;29;20185;-90
2021/10/10 02:32:45;;;;;;;21.67;10.40;;;;;;;;;;4869315;29;20190;-91
2021/10/10 02:35:58;;;;;;;23.67;10.90;;;;;;;;;;4869492;29;20279;-91
2021/10/10 02:39:10;;;;;;;30.20;11.77;;;;;;;;;;4871274;29;20198;-90
2021/10/10 02:42:23;;;;;;;25.60;10.43;;;;;;;;;;4871274;29;20202;-90
2021/10/10 02:45:35;;;;;;;25.37;11.00;;;;;;;;;;4872003;29;20197;-89
2021/10/10 02:48:47;;;;;;;24.03;11.23;;;;;;;;;;4873672;29;20228;-89
2021/10/10 02:51:59;;;;;;;24.87;11.83;;;;;;;;;;4870585;29;20246;-91
2021/10/10 02:55:10;;;;;;;24.63;10.53;;;;;;;;;;4870992;29;20630;-90
2021/10/10 02:58:24;;;;;;;23.37;10.03;;;;;;;;;;4870198;29;20193;-90
2021/10/10 03:01:35;;;;;;;26.43;10.53;;;;;;;;;;4869822;29;20236;-89
2021/10/10 03:04:47;;;;;;;28.07;10.57;;;;;;;;;;4870612;29;20298;-90
2021/10/10 03:07:58;;;;;;;30.47;9.40;;;;;;;;;;4871869;29;20318;-90
2021/10/10 03:11:10;;;;;;;24.37;10.43;;;;;;;;;;4870596;29;20198;-91
2021/10/10 03:14:23;;;;;;;24.10;10.57;;;;;;;;;;4869876;29;20202;-92
2021/10/10 03:17:35;;;;;;;20.60;11.03;;;;;;;;;;4870044;29;20319;-90
2021/10/10 03:20:47;;;;;;;25.20;9.83;;;;;;;;;;4868753;29;20365;-91
2021/10/10 03:23:59;;;;;;;27.83;10.53;;;;;;;;;;4870438;29;20243;-91
2021/10/10 03:27:09;;;;;;;30.80;10.53;;;;;;;;;;4872459;29;20196;-89
2021/10/10 03:30:22;;;;;;;27.00;10.77;;;;;;;;;;4871348;29;20225;-90
2021/10/10 03:33:34;;;;;;;25.87;10.43;;;;;;;;;;4870368;29;20756;-90
2021/10/10 03:36:46;;;;;;;32.23;10.77;;;;;;;;;;4869784;29;20206;-91
2021/10/10 03:39:57;;;;;;;27.27;11.43;;;;;;;;;;4870815;29;20311;-90
2021/10/10 03:43:09;;;;;;;32.53;11.20;;;;;;;;;;4870964;29;20230;-90
2021/10/10 03:46:22;;;;;;;35.33;10.90;;;;;;;;;;4871080;29;20194;-89
2021/10/10 03:49:34;;;;;;;23.03;11.13;;;;;;;;;;4871757;29;20194;-91
2021/10/10 03:52:46;;;;;;;28.97;10.70;;;;;;;;;;4870106;29;20239;-89
2021/10/10 03:55:58;;;;;;;29.17;10.80;;;;;;;;;;4870214;29;20245;-90
2021/10/10 03:59:10;;;;;;;54.10;11.97;;;;;;;;;;4870921;29;20205;-90
2021/10/10 04:02:28;;;;;;;38.93;11.07;;;;;;;;;;4869422;29;20210;-90
2021/10/10 04:05:42;;;;;;;26.17;10.27;;;;;;;;;;4869522;29;20346;-91
2021/10/10 04:08:53;;;;;;;23.33;10.70;;;;;;;;;;4871665;29;20210;-89
2021/10/10 04:12:04;;;;;;;24.27;10.23;;;;;;;;;;4869911;29;20218;-89
2021/10/10 04:15:16;;;;;;;45.00;11.20;;;;;;;;;;4872996;29;20218;-90
2021/10/10 04:18:31;;;;;;;26.97;9.87;;;;;;;;;;4872375;29;20205;-90
2021/10/10 04:21:45;;;;;;;56.17;11.03;;;;;;;;;;4871853;29;20202;-91
2021/10/10 04:24:57;;;;;;;26.00;10.47;;;;;;;;;;4872956;29;20346;-92
2021/10/10 04:28:09;;;;;;;24.00;11.13;;;;;;;;;;4871401;29;20260;-92
2021/10/10 04:31:20;;;;;;;26.60;11.00;;;;;;;;;;4869359;29;20315;-91
2021/10/10 04:34:33;;;;;;;29.13;9.83;;;;;;;;;;4871297;29;20205;-92
2021/10/10 04:37:45;;;;;;;19.97;9.47;;;;;;;;;;4872790;29;20206;-91
2021/10/10 04:40:57;;;;;;;24.13;9.83;;;;;;;;;;4869611;29;20348;-90
2021/10/10 04:44:09;;;;;;;24.63;8.37;;;;;;;;;;4873835;29;20197;-92
2021/10/10 04:47:20;;;;;;;21.27;9.30;;;;;;;;;;4872718;29;20213;-92
2021/10/10 04:50:33;;;;;;;25.53;8.90;;;;;;;;;;4873375;29;20296;-91
2021/10/10 04:53:45;;;;;;;29.40;10.23;;;;;;;;;;4873846;29;20273;-91
2021/10/10 04:56:57;;;;;;;19.53;10.30;;;;;;;;;;4873966;29;20290;-91
2021/10/10 05:00:09;;;;;;;31.23;9.87;;;;;;;;;;4873759;29;20189;-91
2021/10/10 05:03:21;;;;;;;20.33;9.17;;;;;;;;;;4874606;29;20274;-91
2021/10/10 05:06:33;;;;;;;26.73;9.40;;;;;;;;;;4872727;29;20201;-90
2021/10/10 05:09:44;;;;;;;18.00;9.20;;;;;;;;;;4871848;29;20205;-90
2021/10/10 05:12:56;;;;;;;18.23;9.43;;;;;;;;;;4874041;29;20217;-90
2021/10/10 22:22:01;;;;;;;24.33;9.90;;;;;;;;;;4871153;29;20234;-91
2021/10/10 22:25:17;;;;;;;94.13;35.40;;;;;;;;;;4871435;29;20244;-90
2021/10/10 22:32:00;;;;;;;20.43;9.13;;;;;;;;;;4871629;29;20697;-90
2021/10/10 22:35:12;;;;;;;19.57;8.93;;;;;;;;;;4872282;29;20326;-90
2021/10/10 22:38:27;;;;;;;21.77;9.63;;;;;;;;;;4872313;29;20238;-92
2021/10/10 22:41:43;;;;;;;21.50;9.73;;;;;;;;;;4876858;29;20194;-88
2021/10/10 22:44:59;;;;;;;24.40;10.03;;;;;;;;;;4875817;29;20206;-91
2021/10/10 22:48:11;;;;;;;23.07;10.33;;;;;;;;;;4877019;29;20284;-88
2021/10/10 22:51:22;;;;;;;19.70;9.03;;;;;;;;;;4876263;29;20258;-89
2021/10/10 22:54:36;;;;;;;20.20;9.50;;;;;;;;;;4876117;29;20202;-90
2021/10/10 22:58:23;;;;;;;22.07;9.40;;;;;;;;;;4875703;29;20245;-91
2021/10/10 23:01:35;;;;;;;24.97;10.97;;;;;;;;;;4876384;29;20669;-90
2021/10/10 23:04:47;;;;;;;22.77;10.23;;;;;;;;;;4875763;29;20578;-89
2021/10/10 23:08:00;;;;;;;20.67;9.53;;;;;;;;;;4876895;29;20213;-90
2021/10/10 23:11:14;;;;;;;23.73;10.13;;;;;;;;;;4873378;29;20239;-89
2021/10/10 23:14:26;;;;;;;31.17;9.90;;;;;;;;;;4873645;29;20209;-89
2021/10/10 23:17:38;;;;;;;19.93;9.57;;;;;;;;;;4871076;29;20273;-90
2021/10/10 23:20:50;;;;;;;22.17;10.50;;;;;;;;;;4871044;29;20240;-88
2021/10/10 23:24:02;;;;;;;22.17;9.90;;;;;;;;;;4870215;29;20197;-92
2021/10/10 23:27:15;;;;;;;21.17;10.00;;;;;;;;;;4872356;29;20688;-89
2021/10/10 23:30:27;;;;;;;24.70;9.53;;;;;;;;;;4874358;29;20262;-89
2021/10/10 23:33:39;;;;;;;22.03;9.80;;;;;;;;;;4869170;29;20221;-90
2021/10/10 23:36:51;;;;;;;22.77;11.00;;;;;;;;;;4870883;29;20678;-90
2021/10/10 23:40:03;;;;;;;22.87;10.63;;;;;;;;;;4871219;29;20305;-88
2021/10/10 23:43:16;;;;;;;22.63;9.73;;;;;;;;;;4872285;29;20194;-90
2021/10/10 23:46:28;;;;;;;24.77;10.03;;;;;;;;;;4870793;29;20296;-91
2021/10/10 23:49:40;;;;;;;27.43;10.93;;;;;;;;;;4871057;29;20358;-89
2021/10/10 23:52:52;;;;;;;26.30;10.23;;;;;;;;;;4874339;29;20229;-89
2021/10/10 23:56:04;;;;;;;22.90;10.10;;;;;;;;;;4874092;29;20255;-89
2021/10/10 23:59:17;;;;;;;22.63;10.33;;;;;;;;;;4872835;29;20669;-88
